Adak Island, Alaska
Current Conditions -  °F | °C
As of 7:16 PM on Thursday 30 Oct 2014 (Local Time) from PADK Reporting Station
Overcast Overcast  
Wind Chill: 33°   Ceiling: 2900
Heat Index: 45°   Visibility: 5mi
Dew Point: 36°   Wind: 45mph
Humidity: 71%   Direction: 270°W
Pressure: 29.08"   Gusts: 58mph
Location:  51.88°N, 176.65°W
Report Text: PADK 310416Z AUTO 27039G50KT 5SM SCT023 BKN029 OVC037 07/02 A2908 RMK AO1
Loading
Personal Weather Stations






























Interactive Weather Map New forecast layout! Learn more

10-Day Weather Forecast

Advertisements
Track Severe Weather on mobile